createdAt,value
2022-08-11T00:01:16.057Z,17.70
2022-08-11T00:03:50.089Z,17.70
2022-08-11T00:06:23.214Z,17.60
2022-08-11T00:08:50.376Z,17.60
2022-08-11T00:11:17.212Z,17.60
2022-08-11T00:13:45.457Z,17.60
2022-08-11T00:16:22.124Z,17.60
2022-08-11T00:18:52.536Z,17.60
2022-08-11T00:21:20.760Z,17.60
2022-08-11T00:24:07.338Z,17.50
2022-08-11T00:26:33.944Z,17.50
2022-08-11T00:29:08.134Z,17.40
2022-08-11T00:31:34.730Z,17.40
2022-08-11T00:34:01.390Z,17.30
2022-08-11T00:36:45.762Z,17.30
2022-08-11T00:39:12.402Z,17.20
2022-08-11T00:41:41.951Z,17.10
2022-08-11T00:44:11.505Z,17.00
2022-08-11T00:46:53.386Z,17.00
2022-08-11T00:49:40.370Z,16.90
2022-08-11T00:52:06.918Z,16.90
2022-08-11T00:54:57.067Z,16.90
2022-08-11T00:57:37.695Z,16.90
2022-08-11T01:00:06.336Z,16.90
2022-08-11T01:02:41.822Z,17.00
2022-08-11T01:05:27.157Z,17.00
2022-08-11T01:08:12.524Z,17.00
2022-08-11T01:10:48.956Z,17.00
2022-08-11T01:13:34.439Z,17.00
2022-08-11T01:16:08.138Z,17.00
2022-08-11T01:18:41.129Z,17.00
2022-08-11T01:21:26.625Z,16.90
2022-08-11T01:24:14.629Z,16.90
2022-08-11T01:27:00.162Z,16.80
2022-08-11T01:29:26.688Z,16.80
2022-08-11T01:32:12.238Z,16.80
2022-08-11T01:34:57.532Z,16.80
2022-08-11T01:37:47.889Z,16.80
2022-08-11T01:40:20.782Z,16.80
2022-08-11T01:43:09.038Z,16.70
2022-08-11T01:45:46.102Z,16.70
2022-08-11T01:48:31.912Z,16.60
2022-08-11T01:51:17.484Z,16.60
2022-08-11T01:53:50.297Z,16.50
2022-08-11T01:56:22.967Z,16.40
2022-08-11T01:59:15.904Z,16.30
2022-08-11T02:01:50.374Z,16.20
2022-08-11T02:04:17.145Z,16.10
2022-08-11T02:07:04.306Z,16.00
2022-08-11T02:09:49.545Z,15.80
2022-08-11T02:12:24.109Z,15.80
2022-08-11T02:15:12.171Z,15.60
2022-08-11T02:17:41.933Z,15.50
2022-08-11T02:20:34.893Z,15.40
2022-08-11T02:24:03.743Z,15.30
2022-08-11T02:26:18.588Z,15.20
2022-08-11T02:28:54.576Z,15.10
2022-08-11T02:32:24.003Z,15.00
2022-08-11T02:35:00.210Z,14.90
2022-08-11T02:37:33.330Z,14.80
2022-08-11T02:40:00.612Z,14.70
2022-08-11T02:42:36.000Z,14.70
2022-08-11T02:45:05.909Z,14.70
2022-08-11T02:48:10.017Z,14.60
2022-08-11T02:50:38.201Z,14.60
2022-08-11T02:53:04.756Z,14.50
2022-08-11T02:55:45.941Z,14.50
2022-08-11T02:58:19.958Z,14.50
2022-08-11T03:00:57.085Z,14.50
2022-08-11T03:03:31.033Z,14.50
2022-08-11T03:06:20.985Z,14.40
2022-08-11T03:08:53.491Z,14.30
2022-08-11T03:11:57.776Z,14.30
2022-08-11T03:14:47.496Z,14.20
2022-08-11T03:17:30.881Z,14.20
2022-08-11T03:20:06.434Z,14.20
2022-08-11T03:22:34.542Z,14.10
2022-08-11T03:25:02.892Z,14.10
2022-08-11T03:27:38.664Z,14.00
2022-08-11T03:30:18.621Z,13.90
2022-08-11T03:33:08.217Z,13.90
2022-08-11T03:35:37.556Z,13.80
2022-08-11T03:38:04.202Z,13.80
2022-08-11T03:42:02.425Z,13.80
2022-08-11T03:44:10.513Z,13.70
2022-08-11T03:46:45.243Z,13.70
2022-08-11T03:49:21.719Z,13.70
2022-08-11T03:51:52.447Z,13.70
2022-08-11T03:54:29.472Z,13.70
2022-08-11T03:57:15.450Z,13.70
2022-08-11T03:59:56.377Z,13.70
2022-08-11T04:02:27.973Z,13.70
2022-08-11T04:05:18.698Z,13.70
2022-08-11T04:07:45.261Z,13.60
2022-08-11T04:10:30.606Z,13.60
2022-08-11T04:13:15.976Z,13.60
2022-08-11T04:16:10.920Z,13.70
2022-08-11T04:18:39.298Z,13.90
2022-08-11T04:21:05.841Z,14.20
2022-08-11T04:24:36.061Z,14.50
2022-08-11T04:26:40.849Z,14.90
2022-08-11T04:29:36.461Z,15.40
2022-08-11T04:32:39.264Z,15.80
2022-08-11T04:35:24.533Z,16.50
2022-08-11T04:38:15.423Z,17.10
2022-08-11T04:41:00.953Z,17.60
2022-08-11T04:43:36.683Z,18.20
2022-08-11T04:46:26.240Z,19.00
2022-08-11T04:49:33.260Z,19.50
2022-08-11T04:52:38.454Z,20.00
2022-08-11T04:55:33.758Z,20.60
2022-08-11T04:58:31.111Z,20.90
2022-08-11T05:01:37.670Z,21.30
2022-08-11T05:04:42.315Z,21.50
2022-08-11T05:07:31.725Z,21.90
2022-08-11T05:10:07.452Z,22.30
2022-08-11T05:12:47.117Z,22.40
2022-08-11T05:15:43.158Z,22.50
2022-08-11T05:18:32.440Z,22.60
2022-08-11T05:21:17.758Z,23.10
2022-08-11T05:24:05.151Z,23.60
2022-08-11T05:26:54.488Z,24.30
2022-08-11T05:29:44.522Z,24.70
2022-08-11T05:32:30.552Z,25.00
2022-08-11T05:34:57.189Z,25.30
2022-08-11T05:37:27.591Z,25.30
2022-08-11T05:40:16.794Z,25.60
2022-08-11T05:43:02.323Z,26.20
2022-08-11T05:46:02.794Z,27.10
2022-08-11T05:48:50.844Z,27.80
2022-08-11T05:51:36.009Z,28.10
2022-08-11T05:54:28.330Z,28.60
2022-08-11T05:56:59.542Z,29.10
2022-08-11T05:59:27.153Z,29.20
2022-08-11T06:01:53.833Z,29.80
2022-08-11T06:04:21.385Z,30.00
2022-08-11T06:06:51.065Z,30.20
2022-08-11T06:09:21.666Z,30.50
2022-08-11T06:11:48.321Z,30.40
2022-08-11T06:14:15.660Z,30.70
2022-08-11T06:16:42.712Z,30.60
2022-08-11T06:19:09.585Z,31.00
2022-08-11T06:21:36.238Z,30.70
2022-08-11T06:24:11.203Z,30.70
2022-08-11T06:27:01.228Z,31.00
2022-08-11T06:29:37.508Z,30.80
2022-08-11T06:32:04.805Z,31.00
2022-08-11T06:34:52.917Z,31.20
2022-08-11T06:37:19.584Z,31.60
2022-08-11T06:39:49.325Z,31.60
2022-08-11T06:42:24.599Z,31.40
2022-08-11T06:44:58.247Z,31.60
2022-08-11T06:47:24.830Z,32.20
2022-08-11T06:50:10.145Z,32.10
2022-08-11T06:52:37.542Z,32.00
2022-08-11T06:55:15.769Z,32.00
2022-08-11T06:58:16.706Z,32.30
2022-08-11T07:00:43.676Z,32.70
2022-08-11T07:03:11.063Z,32.80
2022-08-11T07:05:37.606Z,32.70
2022-08-11T07:08:41.846Z,32.80
2022-08-11T07:11:30.351Z,32.90
2022-08-11T07:14:17.328Z,32.80
2022-08-11T07:16:44.471Z,32.80
2022-08-11T07:19:29.892Z,33.00
2022-08-11T07:22:15.106Z,33.00
2022-08-11T07:25:02.528Z,33.10
2022-08-11T07:27:55.685Z,32.90
2022-08-11T07:30:22.380Z,33.70
2022-08-11T07:32:51.239Z,33.80
2022-08-11T07:35:18.333Z,33.80
2022-08-11T07:37:47.761Z,34.00
2022-08-11T07:40:15.914Z,33.90
2022-08-11T07:42:46.511Z,33.50
2022-08-11T07:45:31.890Z,33.80
2022-08-11T07:48:17.008Z,33.50
2022-08-11T07:51:02.301Z,33.70
2022-08-11T07:53:29.085Z,34.00
2022-08-11T07:55:56.102Z,34.20
2022-08-11T07:58:45.703Z,34.00
2022-08-11T08:01:39.609Z,34.20
2022-08-11T08:04:25.069Z,34.30
2022-08-11T08:07:10.557Z,34.30
2022-08-11T08:09:55.942Z,33.90
2022-08-11T08:12:41.605Z,34.10
2022-08-11T08:15:27.390Z,33.80
2022-08-11T08:18:09.720Z,33.80
2022-08-11T08:20:48.029Z,33.70
2022-08-11T08:23:14.602Z,34.00
2022-08-11T08:25:41.741Z,33.80
2022-08-11T08:28:14.077Z,34.00
2022-08-11T08:30:55.252Z,33.90
2022-08-11T08:33:31.106Z,33.80
2022-08-11T08:36:16.973Z,33.60
2022-08-11T08:38:50.427Z,33.50
2022-08-11T08:41:21.571Z,32.80
2022-08-11T08:43:49.566Z,32.00
2022-08-11T08:46:16.276Z,31.50
2022-08-11T08:48:43.079Z,31.20
2022-08-11T08:51:33.612Z,30.50
2022-08-11T08:54:22.300Z,30.20
2022-08-11T08:56:49.230Z,30.20
2022-08-11T08:59:15.851Z,30.10
2022-08-11T09:01:53.674Z,30.10
2022-08-11T09:04:21.001Z,30.20
2022-08-11T09:06:51.599Z,30.00
2022-08-11T09:09:19.200Z,29.80
2022-08-11T09:11:53.538Z,29.80
2022-08-11T09:14:21.560Z,29.90
2022-08-11T09:16:48.454Z,29.90
2022-08-11T09:19:17.597Z,29.80
2022-08-11T09:22:06.870Z,29.80
2022-08-11T09:24:52.849Z,30.00
2022-08-11T09:27:20.293Z,30.00
2022-08-11T09:29:46.964Z,30.00
2022-08-11T09:32:15.053Z,30.30
2022-08-11T09:34:41.633Z,30.40
2022-08-11T09:37:54.607Z,30.40
2022-08-11T09:40:29.452Z,30.30
2022-08-11T09:43:18.506Z,30.20
2022-08-11T09:45:51.730Z,30.50
2022-08-11T09:48:22.140Z,30.80
2022-08-11T09:50:49.846Z,30.80
2022-08-11T09:53:36.217Z,31.00
2022-08-11T09:56:26.201Z,31.20
2022-08-11T09:58:52.782Z,30.60
2022-08-11T10:01:27.428Z,30.20
2022-08-11T10:03:57.554Z,30.20
2022-08-11T10:06:43.629Z,30.10
2022-08-11T10:09:10.200Z,29.90
2022-08-11T10:11:36.816Z,29.80
2022-08-11T10:14:33.406Z,30.10
2022-08-11T10:17:02.972Z,29.90
2022-08-11T10:19:29.559Z,29.40
2022-08-11T10:22:14.911Z,29.30
2022-08-11T10:25:00.668Z,29.40
2022-08-11T10:28:09.040Z,29.50
2022-08-11T10:30:32.627Z,29.40
2022-08-11T10:33:36.990Z,29.50
2022-08-11T10:36:06.173Z,29.50
2022-08-11T10:38:45.777Z,29.70
2022-08-11T10:41:31.613Z,29.30
2022-08-11T10:44:03.372Z,29.40
2022-08-11T10:46:49.461Z,29.50
2022-08-11T10:49:16.212Z,29.60
2022-08-11T10:52:01.990Z,29.50
2022-08-11T10:54:47.329Z,29.80
2022-08-11T10:57:32.971Z,30.00
2022-08-11T10:59:59.576Z,29.70
2022-08-11T11:02:27.318Z,29.90
2022-08-11T11:04:58.559Z,30.40
2022-08-11T11:07:29.462Z,30.70
2022-08-11T11:09:57.560Z,30.90
2022-08-11T11:12:43.393Z,31.00
2022-08-11T11:15:28.742Z,31.20
2022-08-11T11:18:09.523Z,31.50
2022-08-11T11:20:43.812Z,31.30
2022-08-11T11:23:20.986Z,31.20
2022-08-11T11:26:06.694Z,30.80
2022-08-11T11:28:47.361Z,30.70
2022-08-11T11:31:22.589Z,30.60
2022-08-11T11:34:06.476Z,30.70
2022-08-11T11:36:39.452Z,30.70
2022-08-11T11:39:07.055Z,30.80
2022-08-11T11:41:33.682Z,30.70
2022-08-11T11:44:01.676Z,30.40
2022-08-11T11:46:30.325Z,30.30
2022-08-11T11:48:57.133Z,30.40
2022-08-11T11:51:23.878Z,30.40
2022-08-11T11:53:50.579Z,30.40
2022-08-11T11:56:17.169Z,30.60
2022-08-11T11:59:02.532Z,30.70
2022-08-11T12:01:29.162Z,30.80
2022-08-11T12:03:55.799Z,30.90
2022-08-11T12:06:23.569Z,31.10
2022-08-11T12:08:50.644Z,30.90
2022-08-11T12:11:37.655Z,30.80
2022-08-11T12:14:10.170Z,30.60
2022-08-11T12:16:38.048Z,30.70
2022-08-11T12:19:17.746Z,30.90
2022-08-11T12:22:02.663Z,31.00
2022-08-11T12:24:48.141Z,31.20
2022-08-11T12:27:25.211Z,31.00
2022-08-11T12:29:56.246Z,31.00
2022-08-11T12:32:24.208Z,31.20
2022-08-11T12:34:50.814Z,31.40
2022-08-11T12:37:20.619Z,31.50
2022-08-11T12:40:16.573Z,31.60
2022-08-11T12:43:21.557Z,31.30
2022-08-11T12:45:49.667Z,31.10
2022-08-11T12:48:59.795Z,31.00
2022-08-11T12:52:13.866Z,31.00
2022-08-11T12:54:57.454Z,31.10
2022-08-11T12:58:02.786Z,31.20
2022-08-11T13:00:48.439Z,31.20
2022-08-11T13:03:33.446Z,31.00
2022-08-11T13:06:00.825Z,30.90
2022-08-11T13:08:27.924Z,31.00
2022-08-11T13:11:13.079Z,31.10
2022-08-11T13:13:55.353Z,31.00
2022-08-11T13:16:25.308Z,31.00
2022-08-11T13:18:53.397Z,30.80
2022-08-11T13:21:21.152Z,30.90
2022-08-11T13:24:01.205Z,30.70
2022-08-11T13:26:47.370Z,30.70
2022-08-11T13:29:20.679Z,30.70
2022-08-11T13:31:47.335Z,30.90
2022-08-11T13:34:15.025Z,31.10
2022-08-11T13:36:41.681Z,31.00
2022-08-11T13:39:09.464Z,30.80
2022-08-11T13:41:44.150Z,30.80
2022-08-11T13:44:12.386Z,30.70
2022-08-11T13:46:44.458Z,30.50
2022-08-11T13:49:11.233Z,30.60
2022-08-11T13:51:38.379Z,30.70
2022-08-11T13:54:12.011Z,30.80
2022-08-11T13:56:41.607Z,30.80
2022-08-11T13:59:08.386Z,30.90
2022-08-11T14:02:20.234Z,31.10
2022-08-11T14:04:31.153Z,30.80
2022-08-11T14:07:01.640Z,30.70
2022-08-11T14:09:28.868Z,30.70
2022-08-11T14:12:24.514Z,30.60
2022-08-11T14:14:52.370Z,30.70
2022-08-11T14:17:47.280Z,30.80
2022-08-11T14:20:35.394Z,31.00
2022-08-11T14:22:53.663Z,31.20
2022-08-11T14:25:20.605Z,31.50
2022-08-11T14:28:32.697Z,31.50
2022-08-11T14:31:01.465Z,31.30
2022-08-11T14:33:58.901Z,31.20
2022-08-11T14:36:15.321Z,31.20
2022-08-11T14:38:41.949Z,31.10
2022-08-11T14:41:27.289Z,30.80
2022-08-11T14:44:14.787Z,30.90
2022-08-11T14:47:00.371Z,30.90
2022-08-11T14:49:27.444Z,31.00
2022-08-11T14:51:55.056Z,30.80
2022-08-11T14:54:43.487Z,31.00
2022-08-11T14:57:10.081Z,31.00
2022-08-11T14:59:37.230Z,31.10
2022-08-11T15:02:22.740Z,30.90
2022-08-11T15:04:49.934Z,30.90
2022-08-11T15:07:16.864Z,30.90
2022-08-11T15:10:09.751Z,30.70
2022-08-11T15:12:33.015Z,30.70
2022-08-11T15:15:19.257Z,30.70
2022-08-11T15:17:46.113Z,30.70
2022-08-11T15:20:34.752Z,30.60
2022-08-11T15:23:20.526Z,30.50
2022-08-11T15:25:49.282Z,30.60
2022-08-11T15:28:34.785Z,30.50
2022-08-11T15:31:20.132Z,30.70
2022-08-11T15:34:05.595Z,30.50
2022-08-11T15:36:52.697Z,30.50
2022-08-11T15:39:20.908Z,30.40
2022-08-11T15:42:08.218Z,30.40
2022-08-11T15:45:08.847Z,30.40
2022-08-11T15:47:57.636Z,30.40
2022-08-11T15:50:32.800Z,30.40
2022-08-11T15:53:00.616Z,30.30
2022-08-11T15:55:27.298Z,30.20
2022-08-11T15:58:12.771Z,30.10
2022-08-11T16:01:03.973Z,30.10
2022-08-11T16:04:14.143Z,30.10
2022-08-11T16:06:54.444Z,30.10
2022-08-11T16:09:25.067Z,30.20
2022-08-11T16:11:54.439Z,30.30
2022-08-11T16:14:39.918Z,30.20
2022-08-11T16:17:07.183Z,30.20
2022-08-11T16:19:36.067Z,30.10
2022-08-11T16:22:07.167Z,30.00
2022-08-11T16:27:03.507Z,30.00
2022-08-11T16:27:24.478Z,30.00
2022-08-11T16:29:51.250Z,30.10
2022-08-11T16:32:22.197Z,30.00
2022-08-11T16:35:14.147Z,30.00
2022-08-11T16:37:59.454Z,29.90
2022-08-11T16:40:26.096Z,29.80
2022-08-11T16:43:11.881Z,29.70
2022-08-11T16:45:57.832Z,29.50
2022-08-11T16:48:35.574Z,29.50
2022-08-11T16:51:05.552Z,29.50
2022-08-11T16:54:00.149Z,29.40
2022-08-11T16:56:20.188Z,29.40
2022-08-11T16:59:05.425Z,29.30
2022-08-11T17:01:32.115Z,29.30
2022-08-11T17:04:18.969Z,29.30
2022-08-11T17:07:23.969Z,29.30
2022-08-11T17:10:39.347Z,29.30
2022-08-11T17:13:11.397Z,29.30
2022-08-11T17:16:00.792Z,29.30
2022-08-11T17:18:46.633Z,29.20
2022-08-11T17:21:16.297Z,29.20
2022-08-11T17:23:52.442Z,29.00
2022-08-11T17:26:23.477Z,29.00
2022-08-11T17:28:51.932Z,28.80
2022-08-11T17:31:38.329Z,28.80
2022-08-11T17:34:24.398Z,28.60
2022-08-11T17:36:52.328Z,28.60
2022-08-11T17:39:19.226Z,28.50
2022-08-11T17:42:15.271Z,28.40
2022-08-11T17:45:00.387Z,28.40
2022-08-11T17:47:45.993Z,28.30
2022-08-11T17:50:17.099Z,28.30
2022-08-11T17:53:03.870Z,28.20
2022-08-11T17:55:52.143Z,28.20
2022-08-11T17:58:38.669Z,28.10
2022-08-11T18:01:09.402Z,28.00
2022-08-11T18:03:39.698Z,28.00
2022-08-11T18:06:12.719Z,27.90
2022-08-11T18:09:04.802Z,27.80
2022-08-11T18:12:11.037Z,27.80
2022-08-11T18:14:55.627Z,27.70
2022-08-11T18:17:41.070Z,27.60
2022-08-11T18:20:26.628Z,27.60
2022-08-11T18:23:12.059Z,27.40
2022-08-11T18:26:02.514Z,27.30
2022-08-11T18:28:58.389Z,27.20
2022-08-11T18:31:43.833Z,27.10
2022-08-11T18:34:29.462Z,27.10
2022-08-11T18:37:29.524Z,27.00
2022-08-11T18:40:23.211Z,26.90
2022-08-11T18:43:08.590Z,26.70
2022-08-11T18:46:06.049Z,26.60
2022-08-11T18:48:52.957Z,26.50
2022-08-11T18:51:38.372Z,26.40
2022-08-11T18:54:24.953Z,26.20
2022-08-11T18:57:10.139Z,26.10
2022-08-11T18:59:55.939Z,26.10
2022-08-11T19:02:48.510Z,26.10
2022-08-11T19:06:31.664Z,26.00
2022-08-11T19:08:40.421Z,25.90
2022-08-11T19:11:25.743Z,25.90
2022-08-11T19:14:11.163Z,25.80
2022-08-11T19:16:56.985Z,25.70
2022-08-11T19:19:47.193Z,25.50
2022-08-11T19:22:32.838Z,25.50
2022-08-11T19:25:20.992Z,25.40
2022-08-11T19:28:10.245Z,25.40
2022-08-11T19:30:55.651Z,25.40
2022-08-11T19:34:02.563Z,25.30
2022-08-11T19:36:46.611Z,25.20
2022-08-11T19:39:31.961Z,25.00
2022-08-11T19:42:17.481Z,24.90
2022-08-11T19:45:02.838Z,24.80
2022-08-11T19:47:47.860Z,24.70
2022-08-11T19:50:33.142Z,24.50
2022-08-11T19:53:19.999Z,24.30
2022-08-11T19:56:06.226Z,24.20
2022-08-11T19:58:51.956Z,24.00
2022-08-11T20:01:37.517Z,23.80
2022-08-11T20:04:42.462Z,23.70
2022-08-11T20:07:31.448Z,23.50
2022-08-11T20:10:17.379Z,23.40
2022-08-11T20:13:02.726Z,23.30
2022-08-11T20:15:49.604Z,23.20
2022-08-11T20:18:35.014Z,23.20
2022-08-11T20:21:25.548Z,23.10
2022-08-11T20:24:17.169Z,23.00
2022-08-11T20:27:02.710Z,23.00
2022-08-11T20:29:48.621Z,22.90
2022-08-11T20:32:34.944Z,22.70
2022-08-11T20:35:20.369Z,22.60
2022-08-11T20:38:07.587Z,22.50
2022-08-11T20:40:55.767Z,22.40
2022-08-11T20:44:07.706Z,22.30
2022-08-11T20:46:46.440Z,22.20
2022-08-11T20:49:41.296Z,22.10
2022-08-11T20:52:38.148Z,22.00
2022-08-11T20:55:45.462Z,21.90
2022-08-11T20:58:46.984Z,21.90
2022-08-11T21:01:38.812Z,21.80
2022-08-11T21:04:26.772Z,21.70
2022-08-11T21:07:11.746Z,21.80
2022-08-11T21:10:10.284Z,21.70
2022-08-11T21:13:00.891Z,21.60
2022-08-11T21:16:06.178Z,21.60
2022-08-11T21:18:51.524Z,21.40
2022-08-11T21:21:45.483Z,21.40
2022-08-11T21:24:31.419Z,21.30
2022-08-11T21:27:16.687Z,21.20
2022-08-11T21:30:10.245Z,21.10
2022-08-11T21:32:55.785Z,21.00
2022-08-11T21:35:44.964Z,21.00
2022-08-11T21:38:30.609Z,21.00
2022-08-11T21:41:16.517Z,20.90
2022-08-11T21:44:01.845Z,20.80
2022-08-11T21:46:47.041Z,20.70
2022-08-11T21:49:32.285Z,20.60
2022-08-11T21:52:17.521Z,20.50
2022-08-11T21:55:02.713Z,20.40
2022-08-11T21:57:50.127Z,20.30
2022-08-11T22:00:35.674Z,20.20
2022-08-11T22:03:20.809Z,20.10
2022-08-11T22:06:06.104Z,20.10
2022-08-11T22:08:51.434Z,20.00
2022-08-11T22:11:38.087Z,19.90
2022-08-11T22:14:23.070Z,19.90
2022-08-11T22:17:08.397Z,19.70
2022-08-11T22:19:54.354Z,19.60
2022-08-11T22:22:51.290Z,19.60
2022-08-11T22:25:38.556Z,19.50
2022-08-11T22:28:24.304Z,19.40
2022-08-11T22:31:09.614Z,19.40
2022-08-11T22:34:02.783Z,19.30
2022-08-11T22:36:48.518Z,19.30
2022-08-11T22:39:35.295Z,19.20
2022-08-11T22:42:24.106Z,19.10
2022-08-11T22:45:18.934Z,19.00
2022-08-11T22:48:04.000Z,18.80
2022-08-11T22:50:49.203Z,18.70
2022-08-11T22:53:58.453Z,18.60
2022-08-11T22:56:39.579Z,18.50
2022-08-11T22:59:24.961Z,18.50
2022-08-11T23:02:10.342Z,18.40
2022-08-11T23:04:55.708Z,18.50
2022-08-11T23:07:51.156Z,18.50
2022-08-11T23:10:37.728Z,18.50
2022-08-11T23:13:22.769Z,18.60
2022-08-11T23:16:08.375Z,18.60
2022-08-11T23:18:53.677Z,18.60
2022-08-11T23:21:39.345Z,18.60
2022-08-11T23:24:24.910Z,18.60
2022-08-11T23:27:10.318Z,18.60
2022-08-11T23:29:55.371Z,18.60
2022-08-11T23:32:40.614Z,18.60
2022-08-11T23:35:39.086Z,18.70
2022-08-11T23:38:26.111Z,18.70
2022-08-11T23:41:11.400Z,18.80
2022-08-11T23:43:56.497Z,18.80
2022-08-11T23:46:41.913Z,18.70
2022-08-11T23:49:27.275Z,18.60
2022-08-11T23:52:12.512Z,18.60
2022-08-11T23:54:57.606Z,18.50
2022-08-11T23:57:49.124Z,18.40
